Time;durP1;ratioP1;P1;durP2;ratioP2;P2;SDS_P1;SDS_P2;PMS_P1;PMS_P2;Temp;Humidity;BMP_temperature;BMP_pressure;BME280_temperature;BME280_humidity;BME280_pressure;Samples;Min_cycle;Max_cycle;Signal;HPM_P1;HPM_P2
2022/06/05 00:00:18;;;;;;;;;;;;;;;17.85;80.39;96935.25;30001;982;1882;-67
2022/06/05 00:01:09;;;;;;;;;;;;;;;17.86;79.96;96928.63;30001;982;1882;-68
2022/06/05 00:01:46;;;;;;;;;;;;;;;17.87;80.07;96930.25;30001;977;1892;-69
2022/06/05 00:02:35;;;;;;;;;;;;;;;17.88;80.04;96931.84;30001;983;1881;-70
2022/06/05 00:03:21;;;;;;;;;;;;;;;17.88;80.00;96931.84;30001;983;1859;-68
2022/06/05 00:04:06;;;;;;;;;;;;;;;17.90;79.86;96929.56;30001;983;1872;-71
2022/06/05 00:04:53;;;;;;;;;;;;;;;17.90;79.84;96929.56;30001;983;1881;-69
2022/06/05 00:05:34;;;;;;;;;;;;;;;17.92;79.99;96931.97;30001;983;1881;-70
2022/06/05 00:06:10;;;;;;;;;;;;;;;17.92;79.66;96923.72;30001;982;1881;-71
2022/06/05 00:07:06;;;;;;;;;;;;;;;17.92;79.98;96921.78;30001;982;1881;-70
2022/06/05 00:08:02;;;;;;;;;;;;;;;17.92;79.72;96921.78;30001;982;1877;-71
2022/06/05 00:09:11;;;;;;;;;;;;;;;17.93;79.76;96915.16;30001;983;1868;-68
2022/06/05 00:09:52;;;;;;;;;;;;;;;17.95;79.53;96910.12;30001;983;1855;-70
2022/06/05 00:10:26;;;;;;;;;;;;;;;17.98;79.28;96909.47;30001;983;1881;-70
2022/06/05 00:10:58;;;;;;;;;;;;;;;17.98;78.67;96903.97;30001;983;1881;-69
2022/06/05 00:11:37;;;;;;;;;;;;;;;18.01;78.61;96907.97;30001;983;1881;-69
2022/06/05 00:12:10;;;;;;;;;;;;;;;18.00;78.63;96896.19;30001;983;1881;-69
2022/06/05 00:13:04;;;;;;;;;;;;;;;18.02;78.86;96910.34;30001;983;1882;-67
2022/06/05 00:13:46;;;;;;;;;;;;;;;18.03;78.58;96905.66;30001;982;1881;-70
2022/06/05 00:14:17;;;;;;;;;;;;;;;18.03;78.53;96900.97;30001;982;1868;-67
2022/06/05 00:14:47;;;;;;;;;;;;;;;18.05;78.49;96901.44;30001;982;1873;-68
2022/06/05 00:15:18;;;;;;;;;;;;;;;18.06;78.59;96900.28;30001;982;1881;-69
2022/06/05 00:15:49;;;;;;;;;;;;;;;18.06;78.20;96894.81;30001;983;1880;-68
2022/06/05 00:16:24;;;;;;;;;;;;;;;18.09;78.25;96898.81;30001;983;1881;-55
2022/06/05 00:16:55;;;;;;;;;;;;;;;18.10;78.44;96900.41;30001;983;1868;-67
2022/06/05 00:17:26;;;;;;;;;;;;;;;18.09;78.35;96894.13;30001;983;1872;-69
2022/06/05 00:17:57;;;;;;;;;;;;;;;18.09;78.04;96896.88;30001;983;1881;-68
2022/06/05 00:18:31;;;;;;;;;;;;;;;18.12;78.31;96898.13;30001;983;1881;-67
2022/06/05 00:19:03;;;;;;;;;;;;;;;18.12;78.18;96897.34;30001;983;1881;-55
2022/06/05 00:19:35;;;;;;;;;;;;;;;18.13;78.13;96896.19;30001;983;1881;-69
2022/06/05 00:20:07;;;;;;;;;;;;;;;18.14;77.70;96884.06;30001;983;1881;-71
2022/06/05 00:20:40;;;;;;;;;;;;;;;18.16;77.93;96892.75;30001;982;1881;-71
2022/06/05 00:21:11;;;;;;;;;;;;;;;18.18;77.62;96895.97;30001;982;1868;-67
2022/06/05 00:21:42;;;;;;;;;;;;;;;18.18;77.71;96895.97;30001;982;1873;-71
2022/06/05 00:22:14;;;;;;;;;;;;;;;18.18;77.72;96895.97;30001;982;1881;-69
2022/06/05 00:22:46;;;;;;;;;;;;;;;18.18;77.72;96893.22;30001;982;1881;-67
2022/06/05 00:23:17;;;;;;;;;;;;;;;18.18;77.59;96896.78;30001;983;1881;-68
2022/06/05 00:23:50;;;;;;;;;;;;;;;18.19;77.64;96898.37;30001;983;1881;-70
2022/06/05 00:24:21;;;;;;;;;;;;;;;18.19;77.42;96894.84;30001;983;1867;-67
2022/06/05 00:24:52;;;;;;;;;;;;;;;18.18;77.66;96891.28;30001;983;1872;-68
2022/06/05 00:25:26;;;;;;;;;;;;;;;18.19;77.56;96892.09;30001;983;1881;-70
2022/06/05 00:26:16;;;;;;;;;;;;;;;18.18;77.80;96885.00;30001;983;1868;-68
2022/06/05 00:27:01;;;;;;;;;;;;;;;18.19;77.59;96894.84;30001;983;1864;-70
2022/06/05 00:27:38;;;;;;;;;;;;;;;18.19;77.75;96887.41;30001;982;1881;-67
2022/06/05 00:28:14;;;;;;;;;;;;;;;18.20;77.34;96890.94;30001;982;1881;-70
2022/06/05 00:28:53;;;;;;;;;;;;;;;18.21;77.57;96887.06;30001;982;1881;-70
2022/06/05 00:29:34;;;;;;;;;;;;;;;18.21;77.17;96884.31;30001;982;1868;-67
2022/06/05 00:30:25;;;;;;;;;;;;;;;18.21;77.53;96878.81;30001;982;1873;-67
2022/06/05 00:31:05;;;;;;;;;;;;;;;18.24;77.12;96886.38;30001;983;1876;-70
2022/06/05 00:31:43;;;;;;;;;;;;;;;18.24;77.20;96884.44;30001;983;1881;-71
2022/06/05 00:32:21;;;;;;;;;;;;;;;18.24;77.02;96894.59;30001;983;1881;-70
2022/06/05 00:33:10;;;;;;;;;;;;;;;18.24;77.20;96889.13;30001;983;1868;-69
2022/06/05 00:33:42;;;;;;;;;;;;;;;18.23;77.21;96887.50;30001;983;1864;-67
2022/06/05 00:34:12;;;;;;;;;;;;;;;18.23;77.03;96893.00;30001;983;1881;-68
2022/06/05 00:34:44;;;;;;;;;;;;;;;18.23;77.17;96890.25;30001;983;1881;-70
2022/06/05 00:35:17;;;;;;;;;;;;;;;18.22;77.34;96894.16;30001;982;1881;-69
2022/06/05 00:35:52;;;;;;;;;;;;;;;18.22;77.11;96892.22;30001;982;1881;-69
2022/06/05 00:36:41;;;;;;;;;;;;;;;18.22;77.18;96886.72;30001;982;1868;-70
2022/06/05 00:37:23;;;;;;;;;;;;;;;18.21;77.25;96879.62;30001;982;1873;-67
2022/06/05 00:38:02;;;;;;;;;;;;;;;18.21;77.64;96881.56;30001;982;1882;-68
2022/06/05 00:38:41;;;;;;;;;;;;;;;18.19;77.50;96875.59;30001;983;1881;-68
2022/06/05 00:39:15;;;;;;;;;;;;;;;18.18;77.69;96877.56;30001;983;1881;-69
2022/06/05 00:39:52;;;;;;;;;;;;;;;18.18;77.97;96874.00;30001;983;1868;-66
2022/06/05 00:40:46;;;;;;;;;;;;;;;18.17;77.90;96877.91;30001;983;1872;-67
2022/06/05 00:41:48;;;;;;;;;;;;;;;18.17;77.78;96872.41;30001;983;1877;-69
2022/06/05 00:42:21;;;;;;;;;;;;;;;18.15;77.74;96886.47;30001;982;1864;-70
2022/06/05 00:42:52;;;;;;;;;;;;;;;18.15;77.87;96880.19;30001;982;1872;-68
2022/06/05 00:43:24;;;;;;;;;;;;;;;18.16;77.74;96882.59;30001;982;1881;-70
2022/06/05 00:43:58;;;;;;;;;;;;;;;18.16;77.69;96881.78;30001;982;1881;-70
2022/06/05 00:44:34;;;;;;;;;;;;;;;18.17;77.66;96883.37;30001;982;1881;-67
2022/06/05 00:45:07;;;;;;;;;;;;;;;18.17;77.49;96880.62;30001;982;1869;-70
2022/06/05 00:45:39;;;;;;;;;;;;;;;18.17;77.72;96884.19;30001;982;1873;-67
2022/06/05 00:46:10;;;;;;;;;;;;;;;18.16;77.70;96887.28;30001;983;1881;-55
2022/06/05 00:46:42;;;;;;;;;;;;;;;18.17;77.50;96877.91;30001;983;1881;-67
2022/06/05 00:47:16;;;;;;;;;;;;;;;18.19;77.39;96881.09;30001;983;1881;-69
2022/06/05 00:47:47;;;;;;;;;;;;;;;18.19;77.58;96875.59;30001;983;1881;-69
2022/06/05 00:48:18;;;;;;;;;;;;;;;18.18;77.27;96869.31;30001;983;1881;-68
2022/06/05 00:48:49;;;;;;;;;;;;;;;18.18;77.59;96879.50;30001;983;1881;-68
2022/06/05 00:49:22;;;;;;;;;;;;;;;18.17;77.63;96872.41;30001;983;1881;-68
2022/06/05 00:49:58;;;;;;;;;;;;;;;18.17;77.44;96878.69;30001;982;1881;-70
2022/06/05 00:50:31;;;;;;;;;;;;;;;18.16;77.69;96882.59;30001;982;1868;-69
2022/06/05 00:51:02;;;;;;;;;;;;;;;18.16;77.72;96879.03;30001;982;1872;-69
2022/06/05 00:51:33;;;;;;;;;;;;;;;18.15;77.75;96878.22;30001;986;1859;-68
2022/06/05 00:52:06;;;;;;;;;;;;;;;18.13;78.12;96876.97;30001;982;1869;-67
2022/06/05 00:52:38;;;;;;;;;;;;;;;18.12;77.81;96870.69;30001;982;1877;-67
2022/06/05 00:53:10;;;;;;;;;;;;;;;18.10;78.21;96878.44;30001;982;1877;-70
2022/06/05 00:53:41;;;;;;;;;;;;;;;18.08;78.05;96876.03;30001;983;1877;-68
2022/06/05 00:54:12;;;;;;;;;;;;;;;18.07;78.32;96873.63;30001;983;1876;-68
2022/06/05 00:54:44;;;;;;;;;;;;;;;18.05;78.28;96871.22;30001;983;1877;-68
2022/06/05 00:55:16;;;;;;;;;;;;;;;18.05;78.57;96870.44;30001;983;1876;-69
2022/06/05 00:55:48;;;;;;;;;;;;;;;18.03;78.31;96873.53;30001;983;1863;-69
2022/06/05 00:56:19;;;;;;;;;;;;;;;18.03;78.43;96876.25;30001;983;1855;-68
2022/06/05 00:56:50;;;;;;;;;;;;;;;18.02;78.44;96871.13;30001;983;1877;-68
2022/06/05 00:57:22;;;;;;;;;;;;;;;18.00;78.84;96868.75;30001;983;1877;-70
2022/06/05 00:57:54;;;;;;;;;;;;;;;17.99;78.78;96867.13;30001;982;1877;-69
2022/06/05 00:58:24;;;;;;;;;;;;;;;17.98;79.05;96871.03;30001;982;1877;-70
2022/06/05 00:58:56;;;;;;;;;;;;;;;17.96;78.82;96867.81;30001;982;1877;-68
2022/06/05 00:59:27;;;;;;;;;;;;;;;17.95;79.12;96871.69;30001;982;1877;-70
2022/06/05 00:59:59;;;;;;;;;;;;;;;17.94;79.19;96870.09;30001;983;1876;-69
2022/06/05 01:00:35;;;;;;;;;;;;;;;17.93;79.29;96868.50;30001;983;1876;-70
2022/06/05 01:01:06;;;;;;;;;;;;;;;17.92;79.17;96866.88;30001;983;1863;-69
2022/06/05 01:01:37;;;;;;;;;;;;;;;17.91;79.36;96865.28;30001;983;1868;-69
2022/06/05 01:02:08;;;;;;;;;;;;;;;17.90;79.23;96863.69;30001;983;1877;-70
2022/06/05 01:02:41;;;;;;;;;;;;;;;17.89;79.49;96867.56;30001;983;1876;-70
2022/06/05 01:03:13;;;;;;;;;;;;;;;17.89;79.24;96862.06;30001;983;1877;-68
2022/06/05 01:03:44;;;;;;;;;;;;;;;17.88;79.43;96874.19;30001;983;1877;-68
2022/06/05 01:04:17;;;;;;;;;;;;;;;17.86;79.87;96879.22;30001;983;1877;-69
2022/06/05 01:04:49;;;;;;;;;;;;;;;17.84;79.81;96870.53;30001;983;1877;-69
2022/06/05 01:05:21;;;;;;;;;;;;;;;17.83;79.85;96868.13;30001;982;1877;-68
2022/06/05 01:05:52;;;;;;;;;;;;;;;17.81;80.35;96882.19;30001;982;1877;-70
2022/06/05 01:06:24;;;;;;;;;;;;;;;17.78;80.05;96871.88;30001;982;1864;-69
2022/06/05 01:06:56;;;;;;;;;;;;;;;17.75;80.13;96878.03;30001;982;1869;-70
2022/06/05 01:07:26;;;;;;;;;;;;;;;17.75;80.19;96878.03;30001;982;1877;-67
2022/06/05 01:07:58;;;;;;;;;;;;;;;17.71;80.66;96877.13;30001;983;1876;-69
2022/06/05 01:08:28;;;;;;;;;;;;;;;17.69;80.97;96882.94;30001;983;1876;-68
2022/06/05 01:08:59;;;;;;;;;;;;;;;17.66;80.46;96878.16;30001;983;1876;-71
2022/06/05 01:09:31;;;;;;;;;;;;;;;17.66;80.71;96882.84;30001;983;1877;-70
2022/06/05 01:10:03;;;;;;;;;;;;;;;17.64;81.05;96891.37;30001;983;1876;-69
2022/06/05 01:11:12;;;;;;;;;;;;;;;17.62;80.79;96884.63;30001;983;1876;-71
2022/06/05 01:11:51;;;;;;;;;;;;;;;17.58;81.14;96889.19;30001;983;1859;-70
2022/06/05 01:12:29;;;;;;;;;;;;;;;17.54;81.35;96883.56;30001;983;1868;-69
2022/06/05 01:13:26;;;;;;;;;;;;;;;17.52;81.61;96890.53;30001;982;1877;-69
2022/06/05 01:14:05;;;;;;;;;;;;;;;17.48;82.03;96889.59;30001;982;1873;-68
2022/06/05 01:14:58;;;;;;;;;;;;;;;17.46;82.48;96897.34;30001;982;1877;-69
2022/06/05 01:15:51;;;;;;;;;;;;;;;17.41;81.89;96899.16;30001;983;1876;-70
2022/06/05 01:16:32;;;;;;;;;;;;;;;17.40;81.64;96900.31;30001;983;1859;-70
2022/06/05 01:17:25;;;;;;;;;;;;;;;17.38;81.97;96901.78;30001;983;1868;-67
2022/06/05 01:18:12;;;;;;;;;;;;;;;17.35;82.29;96903.25;30001;983;1749;-54
2022/06/05 01:18:53;;;;;;;;;;;;;;;17.32;82.25;96903.94;30001;983;1855;-70
2022/06/05 01:19:38;;;;;;;;;;;;;;;17.30;82.53;96906.22;30001;983;1877;-70
2022/06/05 01:20:20;;;;;;;;;;;;;;;17.28;82.62;96903.00;30001;982;1864;-69
2022/06/05 01:21:25;;;;;;;;;;;;;;;17.27;82.25;96911.56;30001;982;1868;-67
2022/06/05 01:22:14;;;;;;;;;;;;;;;17.24;83.05;96904.00;30001;982;1873;-69
2022/06/05 01:23:22;;;;;;;;;;;;;;;17.21;83.19;96912.91;30001;983;1877;-69
2022/06/05 01:24:13;;;;;;;;;;;;;;;17.18;82.68;96908.09;30001;983;1872;-70
2022/06/05 01:25:22;;;;;;;;;;;;;;;17.18;82.78;96911.63;30001;983;1806;-68
2022/06/05 01:26:10;;;;;;;;;;;;;;;17.19;82.81;96913.25;30001;983;1859;-70
2022/06/05 01:26:47;;;;;;;;;;;;;;;17.22;82.85;96909.03;30001;983;1868;-69
2022/06/05 01:27:21;;;;;;;;;;;;;;;17.21;83.05;96907.44;30001;983;1877;-68
2022/06/05 01:27:55;;;;;;;;;;;;;;;17.20;82.97;96906.63;30001;982;1877;-70
2022/06/05 01:28:29;;;;;;;;;;;;;;;17.19;82.98;96910.50;30001;982;1877;-69
2022/06/05 01:29:08;;;;;;;;;;;;;;;17.17;82.84;96899.06;30001;982;1877;-70
2022/06/05 01:29:47;;;;;;;;;;;;;;;17.16;82.90;96911.16;30001;982;1877;-70
2022/06/05 01:30:19;;;;;;;;;;;;;;;17.15;82.97;96901.34;30001;983;1876;-71
2022/06/05 01:30:55;;;;;;;;;;;;;;;17.15;82.78;96906.81;30001;983;1876;-70
2022/06/05 01:31:30;;;;;;;;;;;;;;;17.15;82.93;96904.06;30001;983;1863;-70
2022/06/05 01:32:06;;;;;;;;;;;;;;;17.13;83.15;96900.88;30001;983;1868;-69
2022/06/05 01:32:57;;;;;;;;;;;;;;;17.14;83.28;96901.66;30001;983;1877;-69
2022/06/05 01:33:29;;;;;;;;;;;;;;;17.12;82.87;96907.50;30001;983;1872;-68
2022/06/05 01:34:10;;;;;;;;;;;;;;;17.12;83.13;96910.22;30001;983;1877;-67
2022/06/05 01:35:07;;;;;;;;;;;;;;;17.12;83.36;96904.75;30001;982;1877;-54
2022/06/05 01:36:00;;;;;;;;;;;;;;;17.10;84.02;96909.75;30001;982;1872;-69
2022/06/05 01:36:38;;;;;;;;;;;;;;;17.06;83.79;96917.84;30001;982;1859;-68
2022/06/05 01:37:18;;;;;;;;;;;;;;;17.04;83.95;96909.16;30001;982;1868;-69
2022/06/05 01:37:51;;;;;;;;;;;;;;;17.03;83.75;96910.28;30001;983;1876;-70
2022/06/05 01:38:29;;;;;;;;;;;;;;;17.04;83.74;96911.91;30001;983;1876;-68
2022/06/05 01:39:06;;;;;;;;;;;;;;;17.02;83.72;96916.09;30001;983;1876;-68
2022/06/05 01:39:45;;;;;;;;;;;;;;;17.04;83.49;96914.63;30001;983;1876;-67
2022/06/05 01:40:21;;;;;;;;;;;;;;;17.03;84.18;96912.22;30001;983;1877;-67
2022/06/05 01:40:54;;;;;;;;;;;;;;;17.01;83.62;96919.97;30001;983;1877;-67
2022/06/05 01:41:32;;;;;;;;;;;;;;;17.00;83.74;96916.44;30001;983;1777;-69
2022/06/05 01:42:08;;;;;;;;;;;;;;;17.01;83.45;96922.72;30001;982;1855;-68
2022/06/05 01:43:15;;;;;;;;;;;;;;;17.01;83.76;96917.25;30001;982;1877;-71
2022/06/05 01:43:49;;;;;;;;;;;;;;;17.02;83.91;96921.59;30001;982;1873;-67
2022/06/05 01:44:23;;;;;;;;;;;;;;;17.02;83.77;96916.91;30001;982;1877;-70
2022/06/05 01:44:59;;;;;;;;;;;;;;;17.03;83.60;96917.72;30001;982;1877;-70
2022/06/05 01:45:34;;;;;;;;;;;;;;;17.03;83.58;96918.50;30001;983;1877;-70
2022/06/05 01:46:08;;;;;;;;;;;;;;;17.05;83.53;96920.91;30001;983;1876;-69
2022/06/05 01:46:39;;;;;;;;;;;;;;;17.05;83.68;96920.91;30001;983;1863;-54
2022/06/05 01:47:22;;;;;;;;;;;;;;;17.03;83.83;96917.72;30001;983;1868;-67
2022/06/05 01:47:54;;;;;;;;;;;;;;;17.04;83.79;96922.06;30001;983;1877;-69
2022/06/05 01:48:37;;;;;;;;;;;;;;;17.05;83.91;96920.91;30001;983;1864;-69
2022/06/05 01:49:14;;;;;;;;;;;;;;;17.05;83.83;96918.19;30001;983;1868;-70
2022/06/05 01:49:58;;;;;;;;;;;;;;;17.06;83.90;96906.06;30001;982;1864;-70
2022/06/05 01:50:33;;;;;;;;;;;;;;;17.07;84.03;96910.44;30001;982;1868;-70
2022/06/05 01:51:07;;;;;;;;;;;;;;;17.06;83.73;96906.87;30001;982;1877;-67
2022/06/05 01:52:10;;;;;;;;;;;;;;;17.06;83.48;96906.06;30001;982;1864;-69
2022/06/05 01:52:49;;;;;;;;;;;;;;;17.06;83.86;96897.84;30001;982;1864;-69
2022/06/05 01:53:27;;;;;;;;;;;;;;;17.05;84.20;96890.75;30001;983;1876;-67
2022/06/05 01:54:00;;;;;;;;;;;;;;;17.04;84.06;96892.69;30001;983;1877;-69
2022/06/05 01:54:40;;;;;;;;;;;;;;;17.04;84.09;96891.91;30001;983;1876;-70
2022/06/05 01:55:31;;;;;;;;;;;;;;;17.03;84.22;96887.56;30001;983;1877;-69
2022/06/05 01:56:28;;;;;;;;;;;;;;;17.02;83.82;96886.75;30001;983;1859;-55
2022/06/05 01:57:00;;;;;;;;;;;;;;;17.03;84.10;96885.63;30001;982;1868;-68
2022/06/05 01:57:33;;;;;;;;;;;;;;;17.03;84.12;96887.56;30001;982;1877;-70
2022/06/05 01:58:06;;;;;;;;;;;;;;;17.04;84.00;96886.41;30001;982;1877;-70
2022/06/05 01:58:42;;;;;;;;;;;;;;;17.03;84.13;96890.28;30001;982;1877;-70
2022/06/05 01:59:26;;;;;;;;;;;;;;;17.03;83.91;96882.06;30001;982;1877;-68
2022/06/05 02:00:03;;;;;;;;;;;;;;;17.03;84.14;96879.34;30001;983;1876;-69
2022/06/05 02:00:35;;;;;;;;;;;;;;;17.03;84.14;96879.34;30001;983;1877;-68
2022/06/05 02:01:11;;;;;;;;;;;;;;;17.04;84.04;96875.44;30001;983;1864;-67
2022/06/05 02:01:44;;;;;;;;;;;;;;;17.02;84.27;96873.03;30001;983;1868;-66
2022/06/05 02:02:22;;;;;;;;;;;;;;;17.02;83.98;96864.81;30001;983;1864;-67
2022/06/05 02:03:17;;;;;;;;;;;;;;;17.01;84.33;96871.44;30001;983;1868;-69
2022/06/05 02:04:09;;;;;;;;;;;;;;;17.00;84.30;96858.88;30001;983;1873;-69
2022/06/05 02:04:48;;;;;;;;;;;;;;;17.00;84.10;96856.13;30001;982;1877;-68
2022/06/05 02:05:24;;;;;;;;;;;;;;;17.01;83.85;96856.94;30001;982;1864;-70
2022/06/05 02:05:58;;;;;;;;;;;;;;;17.01;84.24;96862.41;30001;982;1869;-67
2022/06/05 02:06:35;;;;;;;;;;;;;;;17.02;83.91;96861.28;30001;982;1877;-69
2022/06/05 02:07:12;;;;;;;;;;;;;;;17.01;84.06;96860.47;30001;983;1877;-54
2022/06/05 02:07:47;;;;;;;;;;;;;;;17.02;83.72;96864.81;30001;983;1876;-68
2022/06/05 02:08:38;;;;;;;;;;;;;;;17.03;83.66;96857.41;30001;983;1877;-69
2022/06/05 02:09:31;;;;;;;;;;;;;;;17.03;83.89;96863.69;30001;983;1877;-70
2022/06/05 02:10:28;;;;;;;;;;;;;;;17.04;83.98;96864.50;30001;983;1859;-66
2022/06/05 02:11:07;;;;;;;;;;;;;;;17.05;83.89;96866.09;30001;983;1864;-69
2022/06/05 02:11:38;;;;;;;;;;;;;;;17.04;83.88;96867.22;30001;983;1877;-70
2022/06/05 02:12:09;;;;;;;;;;;;;;;17.04;83.95;96870.78;30001;982;1869;-68
2022/06/05 02:12:40;;;;;;;;;;;;;;;17.05;83.92;96868.84;30001;982;1859;-68
2022/06/05 02:13:11;;;;;;;;;;;;;;;17.05;83.67;96872.38;30001;982;1882;-70
2022/06/05 02:13:42;;;;;;;;;;;;;;;17.06;83.83;96867.69;30001;982;1882;-71
2022/06/05 02:14:13;;;;;;;;;;;;;;;17.06;83.59;96878.66;30001;982;1882;-69
2022/06/05 02:14:45;;;;;;;;;;;;;;;17.06;84.19;96867.69;30001;983;1881;-68
2022/06/05 02:15:16;;;;;;;;;;;;;;;17.04;84.16;96869.97;30001;983;1881;-69
2022/06/05 02:15:48;;;;;;;;;;;;;;;17.03;84.20;96871.09;30001;983;1881;-68
2022/06/05 02:16:20;;;;;;;;;;;;;;;17.03;84.18;96871.09;30001;983;1868;-67
2022/06/05 02:16:51;;;;;;;;;;;;;;;17.01;84.22;96870.63;30001;983;1872;-70
2022/06/05 02:17:23;;;;;;;;;;;;;;;17.00;84.29;96863.56;30001;983;1881;-67
2022/06/05 02:17:55;;;;;;;;;;;;;;;16.98;84.39;96865.84;30001;983;1881;-68
2022/06/05 02:18:27;;;;;;;;;;;;;;;16.98;84.22;96858.41;30001;983;1881;-67
2022/06/05 02:19:05;;;;;;;;;;;;;;;16.99;84.22;96856.47;30001;983;1868;-68
2022/06/05 02:19:36;;;;;;;;;;;;;;;17.00;84.24;96852.59;30001;983;1873;-69
2022/06/05 02:20:08;;;;;;;;;;;;;;;17.01;83.85;96854.19;30001;982;1882;-70
2022/06/05 02:20:40;;;;;;;;;;;;;;;17.00;84.00;96847.09;30001;982;1881;-70
2022/06/05 02:21:13;;;;;;;;;;;;;;;17.01;83.66;96849.50;30001;982;1882;-69
2022/06/05 02:21:44;;;;;;;;;;;;;;;17.00;83.99;96847.09;30001;982;1882;-69
2022/06/05 02:22:23;;;;;;;;;;;;;;;17.00;83.62;96836.94;30001;983;1881;-54
2022/06/05 02:22:55;;;;;;;;;;;;;;;17.00;83.83;96833.41;30001;983;1881;-69
2022/06/05 02:23:27;;;;;;;;;;;;;;;16.99;83.91;96829.06;30001;983;1881;-68
2022/06/05 02:24:03;;;;;;;;;;;;;;;16.98;83.70;96824.75;30001;983;1868;-53
2022/06/05 02:24:34;;;;;;;;;;;;;;;16.98;83.54;96819.25;30001;983;1872;-70
2022/06/05 02:25:05;;;;;;;;;;;;;;;16.98;83.87;96806.31;30001;983;1881;-68
2022/06/05 02:25:37;;;;;;;;;;;;;;;16.97;83.87;96809.44;30001;983;1881;-68
2022/06/05 02:26:09;;;;;;;;;;;;;;;16.96;83.92;96800.41;30001;983;1881;-69
2022/06/05 02:26:41;;;;;;;;;;;;;;;16.97;83.58;96798.47;30001;982;1881;-70
2022/06/05 02:27:12;;;;;;;;;;;;;;;16.98;83.85;96797.34;30001;982;1881;-70
2022/06/05 02:27:43;;;;;;;;;;;;;;;16.97;83.70;96793.00;30001;982;1881;-70
2022/06/05 02:28:15;;;;;;;;;;;;;;;16.97;83.60;96790.25;30001;982;1882;-71
2022/06/05 02:28:46;;;;;;;;;;;;;;;16.97;83.86;96782.03;30001;982;1882;-67
2022/06/05 02:29:21;;;;;;;;;;;;;;;16.97;83.75;96784.75;30001;982;1869;-70
2022/06/05 02:29:53;;;;;;;;;;;;;;;16.97;83.76;96777.34;30001;983;1872;-70
2022/06/05 02:30:25;;;;;;;;;;;;;;;16.96;83.73;96775.75;30001;983;1881;-69
2022/06/05 02:31:22;;;;;;;;;;;;;;;16.97;83.98;96771.06;30001;983;1881;-68
2022/06/05 02:32:13;;;;;;;;;;;;;;;16.96;84.05;96763.97;30001;983;1877;-70
2022/06/05 02:33:02;;;;;;;;;;;;;;;16.97;83.71;96762.84;30001;983;1877;-53
2022/06/05 02:33:41;;;;;;;;;;;;;;;16.97;83.63;96754.63;30001;983;1873;-71
2022/06/05 02:34:31;;;;;;;;;;;;;;;16.98;83.95;96745.25;30001;982;1882;-68
2022/06/05 02:35:20;;;;;;;;;;;;;;;16.99;83.57;96746.81;30001;982;1869;-67
2022/06/05 02:36:02;;;;;;;;;;;;;;;17.00;83.39;96732.78;30001;982;1864;-67
2022/06/05 02:36:45;;;;;;;;;;;;;;;17.00;83.15;96729.25;30001;982;1882;-68
2022/06/05 02:37:34;;;;;;;;;;;;;;;16.99;82.99;96725.69;30001;983;1881;-68
2022/06/05 02:38:13;;;;;;;;;;;;;;;16.99;83.05;96722.97;30001;983;1881;-70
2022/06/05 02:38:48;;;;;;;;;;;;;;;17.00;82.97;96716.34;30001;983;1881;-70
2022/06/05 02:39:30;;;;;;;;;;;;;;;17.06;83.22;96725.16;30001;983;1881;-66
2022/06/05 02:40:09;;;;;;;;;;;;;;;17.06;83.14;96714.19;30001;983;1868;-66
2022/06/05 02:40:55;;;;;;;;;;;;;;;17.03;82.92;96714.88;30001;983;1873;-68
2022/06/05 02:41:34;;;;;;;;;;;;;;;17.02;83.05;96713.25;30001;982;1881;-67
2022/06/05 02:42:12;;;;;;;;;;;;;;;17.01;83.14;96711.66;30001;982;1881;-69
2022/06/05 02:43:00;;;;;;;;;;;;;;;17.01;82.85;96703.44;30001;982;1881;-68
2022/06/05 02:43:43;;;;;;;;;;;;;;;16.99;83.03;96714.75;30001;982;1882;-54
2022/06/05 02:44:35;;;;;;;;;;;;;;;17.02;82.97;96716.00;30001;982;1882;-55
2022/06/05 02:45:24;;;;;;;;;;;;;;;17.01;83.25;96717.94;30001;983;1863;-66
2022/06/05 02:46:07;;;;;;;;;;;;;;;17.00;82.96;96715.53;30001;983;1864;-69
2022/06/05 02:46:43;;;;;;;;;;;;;;;17.03;83.34;96717.59;30001;983;1881;-68
2022/06/05 02:47:35;;;;;;;;;;;;;;;17.04;82.92;96714.53;30001;983;1881;-69
2022/06/05 02:48:11;;;;;;;;;;;;;;;17.04;82.74;96721.94;30001;983;1868;-68
2022/06/05 02:48:48;;;;;;;;;;;;;;;17.02;82.78;96716.00;30001;983;1873;-68
2022/06/05 02:49:35;;;;;;;;;;;;;;;17.00;83.13;96718.28;30001;982;1882;-55
2022/06/05 02:50:29;;;;;;;;;;;;;;;16.99;83.00;96722.16;30001;982;1881;-66
2022/06/05 02:51:20;;;;;;;;;;;;;;;16.96;83.15;96720.94;30001;982;1877;-70
2022/06/05 02:51:55;;;;;;;;;;;;;;;16.96;83.18;96742.03;30001;982;1877;-67
2022/06/05 02:52:29;;;;;;;;;;;;;;;16.95;83.13;96732.22;30001;983;1868;-67
2022/06/05 02:53:08;;;;;;;;;;;;;;;16.94;83.60;96738.84;30001;983;1859;-67
2022/06/05 02:53:55;;;;;;;;;;;;;;;16.92;83.78;96741.91;30001;983;1881;-70
2022/06/05 02:54:27;;;;;;;;;;;;;;;16.91;83.97;96745.78;30001;983;1881;-69
2022/06/05 02:55:17;;;;;;;;;;;;;;;16.91;83.87;96745.00;30001;983;1881;-69
2022/06/05 02:55:48;;;;;;;;;;;;;;;16.90;83.88;96751.63;30001;983;1868;-54
2022/06/05 02:56:20;;;;;;;;;;;;;;;16.90;83.97;96748.88;30001;983;1873;-54
2022/06/05 02:56:51;;;;;;;;;;;;;;;16.90;83.82;96748.88;30001;982;1882;-66
2022/06/05 02:57:21;;;;;;;;;;;;;;;16.89;83.78;96752.75;30001;982;1881;-68
2022/06/05 02:57:52;;;;;;;;;;;;;;;16.89;83.68;96750.00;30001;982;1882;-67
2022/06/05 02:58:23;;;;;;;;;;;;;;;16.89;83.79;96758.22;30001;982;1786;-69
2022/06/05 02:58:55;;;;;;;;;;;;;;;16.90;83.61;96759.84;30001;982;1882;-69
2022/06/05 02:59:26;;;;;;;;;;;;;;;16.90;83.52;96759.84;30001;983;1868;-68
2022/06/05 02:59:57;;;;;;;;;;;;;;;16.91;83.49;96761.44;30001;983;1872;-67
2022/06/05 03:00:30;;;;;;;;;;;;;;;16.91;83.84;96761.44;30001;983;1881;-55
2022/06/05 03:03:28;;;;;;;;;;;;;;;16.90;83.81;96760.63;30001;983;1881;-66
2022/06/05 03:04:00;;;;;;;;;;;;;;;16.90;83.57;96760.63;30001;983;1881;-54
2022/06/05 03:04:30;;;;;;;;;;;;;;;16.90;83.92;96759.84;30001;982;1868;-70
2022/06/05 03:05:04;;;;;;;;;;;;;;;16.90;83.58;96759.84;30001;982;1873;-53
2022/06/05 03:05:35;;;;;;;;;;;;;;;16.88;83.85;96751.16;30001;982;1882;-54
2022/06/05 03:06:06;;;;;;;;;;;;;;;16.89;83.84;96758.22;30001;982;1868;-68
2022/06/05 03:06:38;;;;;;;;;;;;;;;16.88;83.92;96748.41;30001;983;1872;-69
2022/06/05 03:07:09;;;;;;;;;;;;;;;16.89;83.68;96758.22;30001;983;1881;-54
2022/06/05 03:07:40;;;;;;;;;;;;;;;16.88;83.87;96749.22;30001;983;1881;-68
2022/06/05 03:08:13;;;;;;;;;;;;;;;16.89;83.85;96755.50;30001;983;1881;-69
2022/06/05 03:08:44;;;;;;;;;;;;;;;16.88;83.87;96751.16;30001;983;1881;-69
2022/06/05 03:09:15;;;;;;;;;;;;;;;16.88;84.15;96753.87;30001;964;1900;-68
2022/06/05 03:09:48;;;;;;;;;;;;;;;16.87;84.18;96750.34;30001;983;1881;-68
2022/06/05 03:10:19;;;;;;;;;;;;;;;16.87;84.22;96749.53;30001;983;1881;-54
2022/06/05 03:10:50;;;;;;;;;;;;;;;16.87;84.05;96749.53;30001;983;1881;-68
2022/06/05 03:11:21;;;;;;;;;;;;;;;16.86;84.33;96747.94;30001;983;1868;-54
2022/06/05 03:11:52;;;;;;;;;;;;;;;16.86;84.21;96747.94;30001;982;1873;-54
2022/06/05 03:12:23;;;;;;;;;;;;;;;16.86;84.12;96743.25;30001;982;1881;-67
2022/06/05 03:12:54;;;;;;;;;;;;;;;16.85;84.36;96741.66;30001;982;1882;-69
2022/06/05 03:13:27;;;;;;;;;;;;;;;16.85;84.14;96746.34;30001;982;1881;-68
2022/06/05 03:13:58;;;;;;;;;;;;;;;16.84;84.48;96739.25;30001;982;1882;-54
2022/06/05 03:14:31;;;;;;;;;;;;;;;16.84;84.04;96733.78;30001;983;1881;-67
2022/06/05 03:15:02;;;;;;;;;;;;;;;16.83;84.08;96730.22;30001;983;1881;-69
2022/06/05 03:15:33;;;;;;;;;;;;;;;16.83;84.50;96732.97;30001;983;1881;-68
2022/06/05 03:16:04;;;;;;;;;;;;;;;16.82;84.71;96725.88;30001;983;1881;-69
2022/06/05 03:16:35;;;;;;;;;;;;;;;16.82;84.64;96730.56;30001;983;1868;-54
2022/06/05 03:17:06;;;;;;;;;;;;;;;16.81;85.15;96718.00;30001;983;1872;-69
2022/06/05 03:17:37;;;;;;;;;;;;;;;16.80;85.02;96719.12;30001;983;1881;-69
2022/06/05 03:18:11;;;;;;;;;;;;;;;16.80;85.07;96719.12;30001;983;1881;-69
2022/06/05 03:18:42;;;;;;;;;;;;;;;16.79;84.95;96712.84;30001;983;1868;-69
2022/06/05 03:19:13;;;;;;;;;;;;;;;16.78;84.77;96714.00;30001;982;1872;-54
2022/06/05 03:19:44;;;;;;;;;;;;;;;16.77;85.08;96714.31;30001;982;1881;-67
2022/06/05 03:20:15;;;;;;;;;;;;;;;16.76;84.96;96716.28;30001;982;1881;-68
2022/06/05 03:20:46;;;;;;;;;;;;;;;16.77;85.04;96712.41;30001;982;1881;-55
2022/06/05 03:21:17;;;;;;;;;;;;;;;16.77;85.06;96711.59;30001;982;1882;-54
2022/06/05 03:21:48;;;;;;;;;;;;;;;16.77;85.04;96711.59;30001;983;1881;-69